PWSweather.com
Personal Weather Stations
Station Observations
WXFCSTR1
Meadowcroft Subdivision, Sumter, SC 29154

Meadowcroft SubdivisionSumter, SC 29154

Lat: 33.887835, Lon: -80.411964

Elevation: 100

Station Type: Ambient Weather WS-2080

Latest ConditionsUpdated 7:20:00 PM EST Saturday, Dec 20, 2014
Currently Today's Max Today's Min Today's Average
Temperature 44.8°F7.1°C 49.1°F9.5°C 43.0°F6.1°C 45.6°F7.6°C
Dew Point 39.9°F4.4°C 46.3°F7.9°C 35.9°F2.2°C 41.0°F5.0°C
Winds 1.6 mph NNW2.6 kmh NNW 3.7 mph SE6.0 kmh SE - 1.1 mph 1.8 kmh
Wind Gusts 5.1 mph8.2 kmh 10.1 mph16.3 kmh - -
Humidity 83% 94% 69% 84%
Pressure 30.22 in1023.4 mb 30.23 in1023.7 mb 30.14 in1020.7 mb -
Precipitation - 0.14 in3.6 mm - -
Hour Temp Dew Point Humidity Winds Wind Gusts Pressure Precip Precip Rate Daily Precip Total
07:20 PM 44.8°F7.1°C 39.9°F4.4°C 83% 1.6 mph NNW2.6 kmh NNW 5.1 mph8.2 kmh 30.22 in1023.4 mb 0.00 in0.0 mm 0.00 in/hr0.0 mm/hr 0.14 in3.6 mm
07:10 PM 45.0°F7.2°C 40.1°F4.5°C 83% 2.0 mph E3.2 kmh E 4.2 mph6.8 kmh 30.22 in1023.4 mb 0.00 in0.0 mm 0.00 in/hr0.0 mm/hr 0.14 in3.6 mm
07:00 PM 45.0°F7.2°C 40.4°F4.7°C 84% 0.9 mph SE1.4 kmh SE 3.0 mph4.8 kmh 30.22 in1023.4 mb 0.00 in0.0 mm 0.00 in/hr0.0 mm/hr 0.14 in3.6 mm
06:50 PM 45.1°F7.3°C 40.6°F4.8°C 84% 3.2 mph N5.1 kmh N 6.0 mph9.7 kmh 30.22 in1023.4 mb 0.00 in0.0 mm 0.00 in/hr0.0 mm/hr 0.14 in3.6 mm
06:40 PM 45.1°F7.3°C 40.6°F4.8°C 84% 2.4 mph ENE3.9 kmh ENE 5.1 mph8.2 kmh 30.22 in1023.4 mb 0.00 in0.0 mm 0.00 in/hr0.0 mm/hr 0.14 in3.6 mm
06:30 PM 45.3°F7.4°C 40.8°F4.9°C 84% 2.0 mph NNE3.2 kmh NNE 5.1 mph8.2 kmh 30.22 in1023.4 mb 0.00 in0.0 mm 0.00 in/hr0.0 mm/hr 0.14 in3.6 mm
06:20 PM 45.5°F7.5°C 40.9°F4.9°C 84% 0.4 mph ESE0.6 kmh ESE 3.0 mph4.8 kmh 30.21 in1023.0 mb 0.00 in0.0 mm 0.00 in/hr0.0 mm/hr 0.14 in3.6 mm
06:10 PM 45.5°F7.5°C 40.9°F4.9°C 84% 3.4 mph N5.5 kmh N 6.0 mph9.7 kmh 30.21 in1023.0 mb 0.00 in0.0 mm 0.00 in/hr0.0 mm/hr 0.14 in3.6 mm
06:00 PM 45.7°F7.6°C 41.1°F5.1°C 84% 2.0 mph NE3.2 kmh NE 4.2 mph6.8 kmh 30.20 in1022.7 mb 0.00 in0.0 mm 0.00 in/hr0.0 mm/hr 0.14 in3.6 mm
05:50 PM 45.7°F7.6°C 41.1°F5.1°C 84% 2.0 mph SE3.2 kmh SE 5.1 mph8.2 kmh 30.20 in1022.7 mb 0.00 in0.0 mm 0.00 in/hr0.0 mm/hr 0.14 in3.6 mm
05:40 PM 45.9°F7.7°C 41.3°F5.2°C 84% 0.8 mph ENE1.3 kmh ENE 4.2 mph6.8 kmh 30.20 in1022.7 mb 0.00 in0.0 mm 0.00 in/hr0.0 mm/hr 0.14 in3.6 mm
05:30 PM 45.9°F7.7°C 41.3°F5.2°C 84% 1.3 mph ESE2.1 kmh ESE 4.2 mph6.8 kmh 30.20 in1022.7 mb 0.00 in0.0 mm 0.00 in/hr0.0 mm/hr 0.14 in3.6 mm
05:20 PM 46.0°F7.8°C 41.5°F5.3°C 84% 0.9 mph N1.4 kmh N 3.0 mph4.8 kmh 30.19 in1022.4 mb 0.00 in0.0 mm 0.00 in/hr0.0 mm/hr 0.14 in3.6 mm
05:10 PM 46.2°F7.9°C 41.7°F5.4°C 84% 2.9 mph E4.7 kmh E 5.1 mph8.2 kmh 30.19 in1022.4 mb 0.00 in0.0 mm 0.00 in/hr0.0 mm/hr 0.14 in3.6 mm
05:00 PM 46.2°F7.9°C 41.7°F5.4°C 84% 2.3 mph S3.7 kmh S 7.1 mph11.4 kmh 30.19 in1022.4 mb 0.00 in0.0 mm 0.00 in/hr0.0 mm/hr 0.14 in3.6 mm
04:50 PM 46.4°F8.0°C 41.8°F5.4°C 84% 2.6 mph N4.2 kmh N 6.0 mph9.7 kmh 30.19 in1022.4 mb 0.00 in0.0 mm 0.00 in/hr0.0 mm/hr 0.14 in3.6 mm
04:40 PM 46.6°F8.1°C 42.0°F5.6°C 84% 2.0 mph NNE3.2 kmh NNE 6.0 mph9.7 kmh 30.19 in1022.4 mb 0.00 in0.0 mm 0.00 in/hr0.0 mm/hr 0.14 in3.6 mm
04:30 PM 46.8°F8.2°C 42.2°F5.7°C 84% 2.5 mph N4.0 kmh N 10.1 mph16.3 kmh 30.18 in1022.0 mb 0.00 in0.0 mm 0.00 in/hr0.0 mm/hr 0.14 in3.6 mm
04:20 PM 46.9°F8.3°C 42.4°F5.8°C 84% 1.0 mph NE1.6 kmh NE 5.1 mph8.2 kmh 30.18 in1022.0 mb 0.00 in0.0 mm 0.00 in/hr0.0 mm/hr 0.14 in3.6 mm
04:10 PM 46.9°F8.3°C 42.7°F5.9°C 85% 1.3 mph ENE2.1 kmh ENE 6.0 mph9.7 kmh 30.18 in1022.0 mb 0.00 in0.0 mm 0.00 in/hr0.0 mm/hr 0.14 in3.6 mm
04:00 PM 47.1°F8.4°C 42.8°F6.0°C 85% 1.9 mph NE3.1 kmh NE 5.1 mph8.2 kmh 30.18 in1022.0 mb 0.00 in0.0 mm 0.00 in/hr0.0 mm/hr 0.14 in3.6 mm
03:50 PM 47.3°F8.5°C 42.7°F5.9°C 84% 3.6 mph NE5.8 kmh NE 7.1 mph11.4 kmh 30.17 in1021.7 mb 0.00 in0.0 mm 0.00 in/hr0.0 mm/hr 0.14 in3.6 mm
03:40 PM 47.5°F8.6°C 42.9°F6.1°C 84% 1.7 mph E2.7 kmh E 4.2 mph6.8 kmh 30.18 in1022.0 mb 0.00 in0.0 mm 0.00 in/hr0.0 mm/hr 0.14 in3.6 mm
03:30 PM 47.7°F8.7°C 43.4°F6.3°C 85% 2.9 mph NW4.7 kmh NW 4.2 mph6.8 kmh 30.17 in1021.7 mb 0.00 in0.0 mm 0.00 in/hr0.0 mm/hr 0.14 in3.6 mm
03:20 PM 48.0°F8.9°C 44.0°F6.7°C 86% 3.7 mph SE6.0 kmh SE 7.1 mph11.4 kmh 30.17 in1021.7 mb 0.00 in0.0 mm 0.00 in/hr0.0 mm/hr 0.14 in3.6 mm
03:10 PM 48.0°F8.9°C 44.0°F6.7°C 86% 2.0 mph NE3.2 kmh NE 4.2 mph6.8 kmh 30.17 in1021.7 mb 0.00 in0.0 mm 0.00 in/hr0.0 mm/hr 0.14 in3.6 mm
03:00 PM 48.0°F8.9°C 44.0°F6.7°C 86% 2.6 mph N4.2 kmh N 5.1 mph8.2 kmh 30.17 in1021.7 mb 0.02 in0.5 mm 0.02 in/hr0.5 mm/hr 0.14 in3.6 mm
02:50 PM 48.2°F9.0°C 44.2°F6.8°C 86% Calm Calm -- 30.17 in1021.7 mb 0.00 in0.0 mm 0.00 in/hr0.0 mm/hr 0.13 in3.3 mm
02:40 PM 48.6°F9.2°C 44.9°F7.2°C 87% 2.2 mph W3.5 kmh W 5.1 mph8.2 kmh 30.17 in1021.7 mb 0.00 in0.0 mm 0.00 in/hr0.0 mm/hr 0.13 in3.3 mm
02:30 PM 48.9°F9.4°C 45.8°F7.7°C 89% 2.3 mph NNW3.7 kmh NNW 5.1 mph8.2 kmh 30.17 in1021.7 mb 0.00 in0.0 mm 0.00 in/hr0.0 mm/hr 0.13 in3.3 mm
02:20 PM 49.1°F9.5°C 46.3°F7.9°C 90% 2.5 mph E4.0 kmh E 6.0 mph9.7 kmh 30.16 in1021.3 mb 0.00 in0.0 mm 0.00 in/hr0.0 mm/hr 0.13 in3.3 mm
02:10 PM 48.4°F9.1°C 45.9°F7.7°C 91% 0.9 mph SE1.4 kmh SE 3.0 mph4.8 kmh 30.16 in1021.3 mb 0.00 in0.0 mm 0.00 in/hr0.0 mm/hr 0.13 in3.3 mm
02:00 PM 48.0°F8.9°C 45.8°F7.7°C 92% 2.9 mph NW4.7 kmh NW 5.1 mph8.2 kmh 30.17 in1021.7 mb 0.00 in0.0 mm 0.00 in/hr0.0 mm/hr 0.13 in3.3 mm
01:50 PM 47.7°F8.7°C 45.5°F7.5°C 92% 0.9 mph NE1.4 kmh NE 3.0 mph4.8 kmh 30.17 in1021.7 mb 0.00 in0.0 mm 0.00 in/hr0.0 mm/hr 0.13 in3.3 mm
01:40 PM 47.5°F8.6°C 45.3°F7.4°C 92% 1.5 mph NE2.4 kmh NE 5.1 mph8.2 kmh 30.18 in1022.0 mb 0.00 in0.0 mm 0.00 in/hr0.0 mm/hr 0.13 in3.3 mm
01:30 PM 47.3°F8.5°C 45.1°F7.3°C 92% 3.5 mph NE5.6 kmh NE 6.0 mph9.7 kmh 30.18 in1022.0 mb 0.00 in0.0 mm 0.00 in/hr0.0 mm/hr 0.13 in3.3 mm
01:20 PM 47.2°F8.4°C 45.3°F7.4°C 93% 2.2 mph NE3.5 kmh NE 5.1 mph8.2 kmh 30.19 in1022.4 mb 0.00 in0.0 mm 0.00 in/hr0.0 mm/hr 0.13 in3.3 mm
01:10 PM 47.1°F8.4°C 45.2°F7.3°C 93% 1.3 mph SE2.1 kmh SE 4.2 mph6.8 kmh 30.19 in1022.4 mb 0.00 in0.0 mm 0.00 in/hr0.0 mm/hr 0.13 in3.3 mm
01:00 PM 46.9°F8.3°C 45.0°F7.2°C 93% 1.8 mph SE2.9 kmh SE 4.2 mph6.8 kmh 30.19 in1022.4 mb 0.02 in0.5 mm 0.02 in/hr0.5 mm/hr 0.13 in3.3 mm
12:50 PM 46.9°F8.3°C 45.0°F7.2°C 93% 2.9 mph ESE4.7 kmh ESE 5.1 mph8.2 kmh 30.19 in1022.4 mb 0.00 in0.0 mm 0.00 in/hr0.0 mm/hr 0.11 in2.8 mm
12:40 PM 46.9°F8.3°C 45.0°F7.2°C 93% 2.0 mph 3.2 kmh 4.2 mph6.8 kmh 30.19 in1022.4 mb 0.00 in0.0 mm 0.00 in/hr0.0 mm/hr 0.11 in2.8 mm
12:30 PM 46.9°F8.3°C 45.0°F7.2°C 93% 1.6 mph S2.6 kmh S 4.2 mph6.8 kmh 30.20 in1022.7 mb 0.00 in0.0 mm 0.00 in/hr0.0 mm/hr 0.11 in2.8 mm
12:20 PM 46.9°F8.3°C 45.0°F7.2°C 93% 1.6 mph NE2.6 kmh NE 3.0 mph4.8 kmh 30.20 in1022.7 mb 0.00 in0.0 mm 0.00 in/hr0.0 mm/hr 0.11 in2.8 mm
12:10 PM 46.9°F8.3°C 45.0°F7.2°C 93% 2.6 mph 4.2 kmh 5.1 mph8.2 kmh 30.21 in1023.0 mb 0.00 in0.0 mm 0.00 in/hr0.0 mm/hr 0.11 in2.8 mm
12:00 PM 46.9°F8.3°C 45.0°F7.2°C 93% 1.3 mph E2.1 kmh E 3.0 mph4.8 kmh 30.21 in1023.0 mb 0.00 in0.0 mm 0.00 in/hr0.0 mm/hr 0.11 in2.8 mm
11:50 AM 46.9°F8.3°C 45.0°F7.2°C 93% 2.0 mph NE3.2 kmh NE 4.2 mph6.8 kmh 30.21 in1023.0 mb 0.02 in0.5 mm 0.12 in/hr3.0 mm/hr 0.11 in2.8 mm
11:40 AM 46.9°F8.3°C 45.0°F7.2°C 93% 2.0 mph SE3.2 kmh SE 4.2 mph6.8 kmh 30.22 in1023.4 mb 0.00 in0.0 mm 0.00 in/hr0.0 mm/hr 0.10 in2.5 mm
11:30 AM 47.1°F8.4°C 45.5°F7.5°C 94% 1.7 mph E2.7 kmh E 4.2 mph6.8 kmh 30.22 in1023.4 mb 0.00 in0.0 mm 0.00 in/hr0.0 mm/hr 0.10 in2.5 mm
11:20 AM 46.8°F8.2°C 45.1°F7.3°C 94% 2.0 mph SE3.2 kmh SE 5.1 mph8.2 kmh 30.21 in1023.0 mb 0.00 in0.0 mm 0.00 in/hr0.0 mm/hr 0.10 in2.5 mm
11:10 AM 46.6°F8.1°C 44.7°F7.1°C 93% 2.0 mph SE3.2 kmh SE 4.2 mph6.8 kmh 30.21 in1023.0 mb 0.00 in0.0 mm 0.00 in/hr0.0 mm/hr 0.10 in2.5 mm
11:00 AM 46.4°F8.0°C 44.5°F6.9°C 93% 0.9 mph E1.4 kmh E 4.2 mph6.8 kmh 30.22 in1023.4 mb 0.00 in0.0 mm 0.00 in/hr0.0 mm/hr 0.10 in2.5 mm
10:50 AM 45.9°F7.7°C 44.0°F6.7°C 93% 1.0 mph E1.6 kmh E 3.0 mph4.8 kmh 30.22 in1023.4 mb 0.00 in0.0 mm 0.00 in/hr0.0 mm/hr 0.10 in2.5 mm
10:40 AM 45.7°F7.6°C 43.8°F6.6°C 93% 0.8 mph E1.3 kmh E 3.0 mph4.8 kmh 30.23 in1023.7 mb 0.00 in0.0 mm 0.00 in/hr0.0 mm/hr 0.10 in2.5 mm
10:30 AM 45.3°F7.4°C 43.4°F6.3°C 93% 0.8 mph E1.3 kmh E 3.0 mph4.8 kmh 30.23 in1023.7 mb 0.00 in0.0 mm 0.00 in/hr0.0 mm/hr 0.10 in2.5 mm
10:20 AM 45.1°F7.3°C 43.2°F6.2°C 93% 1.1 mph ENE1.8 kmh ENE 3.0 mph4.8 kmh 30.23 in1023.7 mb 0.00 in0.0 mm 0.00 in/hr0.0 mm/hr 0.10 in2.5 mm
10:10 AM 45.0°F7.2°C 43.1°F6.2°C 93% 2.0 mph SSE3.2 kmh SSE 4.2 mph6.8 kmh 30.23 in1023.7 mb 0.00 in0.0 mm 0.00 in/hr0.0 mm/hr 0.10 in2.5 mm
10:00 AM 45.0°F7.2°C 43.1°F6.2°C 93% 0.9 mph E1.4 kmh E 3.0 mph4.8 kmh 30.22 in1023.4 mb 0.00 in0.0 mm 0.00 in/hr0.0 mm/hr 0.10 in2.5 mm
09:50 AM 44.8°F7.1°C 42.9°F6.1°C 93% 2.0 mph NE3.2 kmh NE 4.2 mph6.8 kmh 30.22 in1023.4 mb 0.00 in0.0 mm 0.00 in/hr0.0 mm/hr 0.10 in2.5 mm
09:40 AM 44.4°F6.9°C 42.2°F5.7°C 92% 2.3 mph E3.7 kmh E 5.1 mph8.2 kmh 30.22 in1023.4 mb 0.00 in0.0 mm 0.00 in/hr0.0 mm/hr 0.10 in2.5 mm
09:30 AM 44.2°F6.8°C 42.1°F5.6°C 92% 0.3 mph E0.5 kmh E 2.1 mph3.4 kmh 30.21 in1023.0 mb 0.00 in0.0 mm 0.00 in/hr0.0 mm/hr 0.10 in2.5 mm
09:20 AM 44.1°F6.7°C 41.6°F5.3°C 91% 2.0 mph ENE3.2 kmh ENE 4.2 mph6.8 kmh 30.21 in1023.0 mb 0.00 in0.0 mm 0.00 in/hr0.0 mm/hr 0.10 in2.5 mm
09:10 AM 43.9°F6.6°C 41.4°F5.2°C 91% 1.3 mph NE2.1 kmh NE 5.1 mph8.2 kmh 30.22 in1023.4 mb 0.02 in0.5 mm 0.12 in/hr3.0 mm/hr 0.10 in2.5 mm
09:00 AM 43.7°F6.5°C 41.0°F5.0°C 90% 0.9 mph ENE1.4 kmh ENE 3.0 mph4.8 kmh 30.22 in1023.4 mb 0.00 in0.0 mm 0.00 in/hr0.0 mm/hr 0.08 in2.0 mm
08:50 AM 43.5°F6.4°C 41.1°F5.1°C 91% 0.5 mph N0.8 kmh N 3.0 mph4.8 kmh 30.21 in1023.0 mb 0.00 in0.0 mm 0.00 in/hr0.0 mm/hr 0.08 in2.0 mm
08:40 AM 43.5°F6.4°C 41.1°F5.1°C 91% 0.9 mph NE1.4 kmh NE 3.0 mph4.8 kmh 30.21 in1023.0 mb 0.00 in0.0 mm 0.00 in/hr0.0 mm/hr 0.08 in2.0 mm
08:30 AM 43.3°F6.3°C 40.9°F4.9°C 91% 0.9 mph NNE1.4 kmh NNE 2.1 mph3.4 kmh 30.20 in1022.7 mb 0.00 in0.0 mm 0.00 in/hr0.0 mm/hr 0.08 in2.0 mm
08:20 AM 43.2°F6.2°C 40.7°F4.8°C 91% 0.4 mph NE0.6 kmh NE 2.1 mph3.4 kmh 30.20 in1022.7 mb 0.00 in0.0 mm 0.00 in/hr0.0 mm/hr 0.08 in2.0 mm
08:10 AM 43.2°F6.2°C 40.4°F4.7°C 90% 0.8 mph E1.3 kmh E 3.0 mph4.8 kmh 30.19 in1022.4 mb 0.00 in0.0 mm 0.00 in/hr0.0 mm/hr 0.08 in2.0 mm
08:00 AM 43.2°F6.2°C 40.4°F4.7°C 90% 0.4 mph 0.6 kmh 2.1 mph3.4 kmh 30.19 in1022.4 mb 0.00 in0.0 mm 0.00 in/hr0.0 mm/hr 0.08 in2.0 mm
07:50 AM 43.0°F6.1°C 40.2°F4.6°C 90% 0.5 mph NNE0.8 kmh NNE 2.1 mph3.4 kmh 30.18 in1022.0 mb 0.00 in0.0 mm 0.00 in/hr0.0 mm/hr 0.08 in2.0 mm
07:40 AM 43.0°F6.1°C 40.2°F4.6°C 90% 2.3 mph N3.7 kmh N 5.1 mph8.2 kmh 30.18 in1022.0 mb 0.00 in0.0 mm 0.00 in/hr0.0 mm/hr 0.08 in2.0 mm
07:30 AM 43.0°F6.1°C 40.0°F4.4°C 89% 0.6 mph NE1.0 kmh NE 2.1 mph3.4 kmh 30.17 in1021.7 mb 0.00 in0.0 mm 0.00 in/hr0.0 mm/hr 0.08 in2.0 mm
07:20 AM 43.0°F6.1°C 40.0°F4.4°C 89% 0.9 mph NE1.4 kmh NE 2.1 mph3.4 kmh 30.17 in1021.7 mb 0.00 in0.0 mm 0.00 in/hr0.0 mm/hr 0.08 in2.0 mm
07:10 AM 43.0°F6.1°C 39.7°F4.3°C 88% Calm Calm 2.1 mph3.4 kmh 30.17 in1021.7 mb 0.02 in0.5 mm 0.12 in/hr3.0 mm/hr 0.08 in2.0 mm
07:00 AM 43.2°F6.2°C 39.8°F4.3°C 88% 1.7 mph SE2.7 kmh SE 3.0 mph4.8 kmh 30.16 in1021.3 mb 0.00 in0.0 mm 0.00 in/hr0.0 mm/hr 0.06 in1.5 mm
06:50 AM 43.2°F6.2°C 39.6°F4.2°C 87% Calm Calm 0.9 mph1.4 kmh 30.17 in1021.7 mb 0.00 in0.0 mm 0.00 in/hr0.0 mm/hr 0.06 in1.5 mm
06:40 AM 43.2°F6.2°C 39.6°F4.2°C 87% 0.6 mph SE1.0 kmh SE 2.1 mph3.4 kmh 30.16 in1021.3 mb 0.00 in0.0 mm 0.00 in/hr0.0 mm/hr 0.06 in1.5 mm
06:30 AM 43.2°F6.2°C 39.3°F4.1°C 86% Calm Calm -- 30.16 in1021.3 mb 0.02 in0.5 mm 0.12 in/hr3.0 mm/hr 0.06 in1.5 mm
06:20 AM 43.3°F6.3°C 39.4°F4.1°C 86% 0.6 mph NE1.0 kmh NE 2.1 mph3.4 kmh 30.16 in1021.3 mb 0.00 in0.0 mm 0.00 in/hr0.0 mm/hr 0.05 in1.3 mm
06:10 AM 43.5°F6.4°C 39.3°F4.1°C 85% 0.2 mph NE0.3 kmh NE 2.1 mph3.4 kmh 30.16 in1021.3 mb 0.00 in0.0 mm 0.00 in/hr0.0 mm/hr 0.05 in1.3 mm
06:00 AM 43.5°F6.4°C 39.3°F4.1°C 85% 1.5 mph S2.4 kmh S 3.0 mph4.8 kmh 30.16 in1021.3 mb 0.00 in0.0 mm 0.00 in/hr0.0 mm/hr 0.05 in1.3 mm
05:50 AM 43.7°F6.5°C 38.9°F3.8°C 83% 0.7 mph ENE1.1 kmh ENE 3.0 mph4.8 kmh 30.16 in1021.3 mb 0.00 in0.0 mm 0.00 in/hr0.0 mm/hr 0.05 in1.3 mm
05:40 AM 43.9°F6.6°C 38.7°F3.7°C 82% Calm Calm -- 30.15 in1021.0 mb 0.02 in0.5 mm 0.12 in/hr3.0 mm/hr 0.05 in1.3 mm
05:30 AM 44.1°F6.7°C 38.6°F3.7°C 81% 0.2 mph E0.3 kmh E 2.1 mph3.4 kmh 30.16 in1021.3 mb 0.00 in0.0 mm 0.00 in/hr0.0 mm/hr 0.03 in0.8 mm
05:20 AM 44.2°F6.8°C 38.8°F3.8°C 81% Calm Calm -- 30.16 in1021.3 mb 0.02 in0.5 mm 0.12 in/hr3.0 mm/hr 0.03 in0.8 mm
05:10 AM 44.3°F6.8°C 38.5°F3.6°C 80% 0.1 mph SE0.2 kmh SE 3.0 mph4.8 kmh 30.15 in1021.0 mb 0.02 in0.5 mm 0.12 in/hr3.0 mm/hr 0.03 in0.8 mm
05:00 AM 44.4°F6.9°C 38.3°F3.5°C 79% 0.2 mph E0.3 kmh E 3.0 mph4.8 kmh 30.14 in1020.7 mb 0.00 in0.0 mm 0.00 in/hr0.0 mm/hr 0.02 in0.5 mm
04:50 AM 44.8°F7.1°C 38.7°F3.7°C 79% 0.7 mph E1.1 kmh E 3.0 mph4.8 kmh 30.14 in1020.7 mb 0.02 in0.5 mm 0.12 in/hr3.0 mm/hr 0.02 in0.5 mm
04:40 AM 45.0°F7.2°C 38.5°F3.6°C 78% 1.3 mph E2.1 kmh E 4.2 mph6.8 kmh 30.15 in1021.0 mb 0.00 in0.0 mm 0.00 in/hr0.0 mm/hr 0.00 in0.0 mm
04:30 AM 45.1°F7.3°C 38.0°F3.3°C 76% 0.1 mph SE0.2 kmh SE 2.1 mph3.4 kmh 30.15 in1021.0 mb 0.00 in0.0 mm 0.00 in/hr0.0 mm/hr 0.00 in0.0 mm
04:20 AM 45.3°F7.4°C 38.2°F3.4°C 76% Calm Calm -- 30.15 in1021.0 mb 0.00 in0.0 mm 0.00 in/hr0.0 mm/hr 0.00 in0.0 mm
04:10 AM 45.7°F7.6°C 37.9°F3.3°C 74% Calm Calm 0.9 mph1.4 kmh 30.15 in1021.0 mb 0.00 in0.0 mm 0.00 in/hr0.0 mm/hr 0.00 in0.0 mm
04:00 AM 45.9°F7.7°C 38.0°F3.3°C 74% Calm Calm 2.1 mph3.4 kmh 30.15 in1021.0 mb 0.00 in0.0 mm 0.00 in/hr0.0 mm/hr 0.00 in0.0 mm
03:50 AM 46.0°F7.8°C 37.9°F3.3°C 73% Calm Calm 2.1 mph3.4 kmh 30.15 in1021.0 mb 0.00 in0.0 mm 0.00 in/hr0.0 mm/hr 0.00 in0.0 mm
03:40 AM 46.0°F7.8°C 37.9°F3.3°C 73% Calm Calm 2.1 mph3.4 kmh 30.16 in1021.3 mb 0.00 in0.0 mm 0.00 in/hr0.0 mm/hr 0.00 in0.0 mm
03:30 AM 46.0°F7.8°C 37.5°F3.1°C 72% Calm Calm -- 30.16 in1021.3 mb 0.00 in0.0 mm 0.00 in/hr0.0 mm/hr 0.00 in0.0 mm
03:20 AM 46.0°F7.8°C 37.5°F3.1°C 72% Calm Calm -- 30.15 in1021.0 mb 0.00 in0.0 mm 0.00 in/hr0.0 mm/hr 0.00 in0.0 mm
03:10 AM 46.0°F7.8°C 37.5°F3.1°C 72% Calm Calm -- 30.16 in1021.3 mb 0.00 in0.0 mm 0.00 in/hr0.0 mm/hr 0.00 in0.0 mm
03:00 AM 46.0°F7.8°C 37.5°F3.1°C 72% Calm Calm -- 30.15 in1021.0 mb 0.00 in0.0 mm 0.00 in/hr0.0 mm/hr 0.00 in0.0 mm
02:50 AM 46.0°F7.8°C 37.4°F3.0°C 72% 1.5 mph NE2.4 kmh NE 3.0 mph4.8 kmh 30.15 in1021.0 mb 0.00 in0.0 mm 0.00 in/hr0.0 mm/hr 0.00 in0.0 mm
02:40 AM 46.0°F7.8°C 37.5°F3.1°C 72% Calm Calm -- 30.15 in1021.0 mb 0.00 in0.0 mm 0.00 in/hr0.0 mm/hr 0.00 in0.0 mm
02:30 AM 45.9°F7.7°C 37.3°F2.9°C 72% Calm Calm -- 30.16 in1021.3 mb 0.00 in0.0 mm 0.00 in/hr0.0 mm/hr 0.00 in0.0 mm
02:20 AM 45.9°F7.7°C 37.3°F2.9°C 72% Calm Calm -- 30.15 in1021.0 mb 0.00 in0.0 mm 0.00 in/hr0.0 mm/hr 0.00 in0.0 mm
02:10 AM 45.9°F7.7°C 37.3°F2.9°C 72% Calm Calm 0.9 mph1.4 kmh 30.16 in1021.3 mb 0.00 in0.0 mm 0.00 in/hr0.0 mm/hr 0.00 in0.0 mm
02:00 AM 45.7°F7.6°C 37.5°F3.1°C 73% Calm Calm -- 30.15 in1021.0 mb 0.00 in0.0 mm 0.00 in/hr0.0 mm/hr 0.00 in0.0 mm
01:50 AM 45.7°F7.6°C 37.5°F3.1°C 73% Calm Calm -- 30.14 in1020.7 mb 0.00 in0.0 mm 0.00 in/hr0.0 mm/hr 0.00 in0.0 mm
01:40 AM 45.7°F7.6°C 37.5°F3.1°C 73% 0.6 mph NE1.0 kmh NE 3.0 mph4.8 kmh 30.14 in1020.7 mb 0.00 in0.0 mm 0.00 in/hr0.0 mm/hr 0.00 in0.0 mm
01:30 AM 45.5°F7.5°C 37.3°F2.9°C 73% Calm Calm -- 30.15 in1021.0 mb 0.00 in0.0 mm 0.00 in/hr0.0 mm/hr 0.00 in0.0 mm
01:20 AM 45.5°F7.5°C 37.3°F2.9°C 73% Calm Calm -- 30.15 in1021.0 mb 0.00 in0.0 mm 0.00 in/hr0.0 mm/hr 0.00 in0.0 mm
01:10 AM 45.5°F7.5°C 37.0°F2.8°C 72% Calm Calm -- 30.15 in1021.0 mb 0.00 in0.0 mm 0.00 in/hr0.0 mm/hr 0.00 in0.0 mm
01:00 AM 45.5°F7.5°C 36.6°F2.6°C 71% Calm Calm -- 30.16 in1021.3 mb 0.00 in0.0 mm 0.00 in/hr0.0 mm/hr 0.00 in0.0 mm
12:50 AM 45.5°F7.5°C 36.6°F2.6°C 71% Calm Calm -- 30.16 in1021.3 mb 0.00 in0.0 mm 0.00 in/hr0.0 mm/hr 0.00 in0.0 mm
12:40 AM 45.5°F7.5°C 36.6°F2.6°C 71% Calm Calm -- 30.16 in1021.3 mb 0.00 in0.0 mm 0.00 in/hr0.0 mm/hr 0.00 in0.0 mm
12:30 AM 45.5°F7.5°C 36.3°F2.4°C 70% Calm Calm -- 30.16 in1021.3 mb 0.00 in0.0 mm 0.00 in/hr0.0 mm/hr 0.00 in0.0 mm
12:20 AM 45.5°F7.5°C 35.9°F2.2°C 69% Calm Calm -- 30.16 in1021.3 mb 0.00 in0.0 mm 0.00 in/hr0.0 mm/hr 0.00 in0.0 mm
12:10 AM 45.5°F7.5°C 35.9°F2.2°C 69% Calm Calm -- 30.17 in1021.7 mb 0.00 in0.0 mm 0.00 in/hr0.0 mm/hr 0.00 in0.0 mm
12:00 AM 45.7°F7.6°C 36.1°F2.3°C 69% Calm Calm -- 30.16 in1021.3 mb 0.00 in0.0 mm 0.00 in/hr0.0 mm/hr 0.00 in0.0 mm